sensor_id;sensor_type;location;lat;lon;timestamp;pressure;altitude;pressure_sealevel;temperature;humidity
32875;BME280;40468;42.128;24.750;2023-08-12T00:00:19;100047.97;;;22.99;42.54
32875;BME280;40468;42.128;24.750;2023-08-12T00:01:50;100059.28;;;23.01;42.50
32875;BME280;40468;42.128;24.750;2023-08-12T00:03:21;100051.47;;;22.99;42.28
32875;BME280;40468;42.128;24.750;2023-08-12T00:04:53;100054.13;;;22.99;42.38
32875;BME280;40468;42.128;24.750;2023-08-12T00:06:25;100061.38;;;22.97;42.62
32875;BME280;40468;42.128;24.750;2023-08-12T00:07:56;100060.69;;;22.95;42.38
32875;BME280;40468;42.128;24.750;2023-08-12T00:09:27;100058.88;;;22.96;42.68
32875;BME280;40468;42.128;24.750;2023-08-12T00:10:58;100058.72;;;22.97;42.40
32875;BME280;40468;42.128;24.750;2023-08-12T00:12:29;100063.22;;;22.97;42.41
32875;BME280;40468;42.128;24.750;2023-08-12T00:14:01;100058.03;;;22.95;42.67
32875;BME280;40468;42.128;24.750;2023-08-12T00:15:31;100058.28;;;22.92;42.72
32875;BME280;40468;42.128;24.750;2023-08-12T00:17:03;100051.59;;;22.88;42.91
32875;BME280;40468;42.128;24.750;2023-08-12T00:18:35;100052.00;;;22.83;43.05
32875;BME280;40468;42.128;24.750;2023-08-12T00:20:07;100047.97;;;22.79;42.89
32875;BME280;40468;42.128;24.750;2023-08-12T00:21:42;100049.91;;;22.77;43.10
32875;BME280;40468;42.128;24.750;2023-08-12T00:23:12;100051.91;;;22.75;43.35
32875;BME280;40468;42.128;24.750;2023-08-12T00:24:44;100046.88;;;22.72;43.20
32875;BME280;40468;42.128;24.750;2023-08-12T00:26:15;100051.31;;;22.71;43.35
32875;BME280;40468;42.128;24.750;2023-08-12T00:27:46;100040.56;;;22.73;43.29
32875;BME280;40468;42.128;24.750;2023-08-12T00:29:17;100053.84;;;22.73;43.20
32875;BME280;40468;42.128;24.750;2023-08-12T00:30:49;100046.88;;;22.72;43.37
32875;BME280;40468;42.128;24.750;2023-08-12T00:33:51;100043.09;;;22.65;43.56
32875;BME280;40468;42.128;24.750;2023-08-12T00:35:22;100047.56;;;22.64;43.46
32875;BME280;40468;42.128;24.750;2023-08-12T00:36:54;100046.72;;;22.64;43.61
32875;BME280;40468;42.128;24.750;2023-08-12T00:38:26;100052.03;;;22.64;43.42
32875;BME280;40468;42.128;24.750;2023-08-12T00:39:58;100048.38;;;22.65;43.54
32875;BME280;40468;42.128;24.750;2023-08-12T00:41:28;100048.38;;;22.65;43.69
32875;BME280;40468;42.128;24.750;2023-08-12T00:43:00;100045.91;;;22.63;43.52
32875;BME280;40468;42.128;24.750;2023-08-12T00:44:30;100049.38;;;22.64;43.50
32875;BME280;40468;42.128;24.750;2023-08-12T00:46:02;100047.84;;;22.61;43.59
32875;BME280;40468;42.128;24.750;2023-08-12T00:47:33;100047.13;;;22.59;43.72
32875;BME280;40468;42.128;24.750;2023-08-12T00:49:05;100045.59;;;22.57;43.75
32875;BME280;40468;42.128;24.750;2023-08-12T00:50:36;100041.72;;;22.51;44.05
32875;BME280;40468;42.128;24.750;2023-08-12T00:52:09;100039.34;;;22.48;44.21
32875;BME280;40468;42.128;24.750;2023-08-12T00:53:40;100045.88;;;22.44;44.22
32875;BME280;40468;42.128;24.750;2023-08-12T00:55:12;100033.88;;;22.40;44.47
32875;BME280;40468;42.128;24.750;2023-08-12T00:56:43;100036.09;;;22.35;44.48
32875;BME280;40468;42.128;24.750;2023-08-12T00:58:14;100032.75;;;22.33;44.38
32875;BME280;40468;42.128;24.750;2023-08-12T00:59:46;100029.25;;;22.32;44.59
32875;BME280;40468;42.128;24.750;2023-08-12T01:01:17;100030.25;;;22.31;44.67
32875;BME280;40468;42.128;24.750;2023-08-12T01:02:48;100029.41;;;22.31;44.25
32875;BME280;40468;42.128;24.750;2023-08-12T01:04:20;100023.97;;;22.32;44.35
32875;BME280;40468;42.128;24.750;2023-08-12T01:05:51;100031.78;;;22.34;44.40
32875;BME280;40468;42.128;24.750;2023-08-12T01:07:24;100029.13;;;22.34;44.53
32875;BME280;40468;42.128;24.750;2023-08-12T01:08:55;100028.03;;;22.36;44.39
32875;BME280;40468;42.128;24.750;2023-08-12T01:10:28;100029.97;;;22.34;44.27
32875;BME280;40468;42.128;24.750;2023-08-12T01:12:03;100030.97;;;22.33;44.33
32875;BME280;40468;42.128;24.750;2023-08-12T01:13:38;100033.47;;;22.35;44.27
32875;BME280;40468;42.128;24.750;2023-08-12T01:15:15;100039.59;;;22.35;44.12
32875;BME280;40468;42.128;24.750;2023-08-12T01:16:47;100034.28;;;22.35;44.30
32875;BME280;40468;42.128;24.750;2023-08-12T01:18:20;100037.94;;;22.34;44.24
32875;BME280;40468;42.128;24.750;2023-08-12T01:19:52;100033.63;;;22.33;44.11
32875;BME280;40468;42.128;24.750;2023-08-12T01:21:23;100033.63;;;22.33;44.12
32875;BME280;40468;42.128;24.750;2023-08-12T01:22:57;100030.97;;;22.33;44.21
32875;BME280;40468;42.128;24.750;2023-08-12T01:24:35;100033.84;;;22.30;44.36
32875;BME280;40468;42.128;24.750;2023-08-12T01:26:07;100031.47;;;22.27;44.58
32875;BME280;40468;42.128;24.750;2023-08-12T01:27:37;100032.63;;;22.24;44.32
32875;BME280;40468;42.128;24.750;2023-08-12T01:29:09;100031.91;;;22.22;44.38
32875;BME280;40468;42.128;24.750;2023-08-12T01:30:41;100030.38;;;22.20;44.36
32875;BME280;40468;42.128;24.750;2023-08-12T01:32:18;100032.03;;;22.21;44.23
32875;BME280;40468;42.128;24.750;2023-08-12T01:33:54;100037.34;;;22.21;44.26
32875;BME280;40468;42.128;24.750;2023-08-12T01:35:30;100037.06;;;22.24;44.31
32875;BME280;40468;42.128;24.750;2023-08-12T01:37:02;100033.47;;;22.25;44.45
32875;BME280;40468;42.128;24.750;2023-08-12T01:38:36;100033.47;;;22.25;44.28
32875;BME280;40468;42.128;24.750;2023-08-12T01:40:11;100037.78;;;22.26;44.42
32875;BME280;40468;42.128;24.750;2023-08-12T01:41:42;100040.44;;;22.26;44.36
32875;BME280;40468;42.128;24.750;2023-08-12T01:43:14;100044.06;;;22.25;44.46
32875;BME280;40468;42.128;24.750;2023-08-12T01:44:44;100037.94;;;22.24;44.59
32875;BME280;40468;42.128;24.750;2023-08-12T01:46:16;100045.19;;;22.22;44.63
32875;BME280;40468;42.128;24.750;2023-08-12T01:47:47;100037.50;;;22.19;44.48
32875;BME280;40468;42.128;24.750;2023-08-12T01:49:21;100042.09;;;22.17;44.73
32875;BME280;40468;42.128;24.750;2023-08-12T01:50:54;100042.78;;;22.10;44.90
32875;BME280;40468;42.128;24.750;2023-08-12T01:52:26;100044.00;;;22.06;45.00
32875;BME280;40468;42.128;24.750;2023-08-12T01:53:56;100037.59;;;21.98;45.12
32875;BME280;40468;42.128;24.750;2023-08-12T01:55:29;100037.31;;;21.92;45.14
32875;BME280;40468;42.128;24.750;2023-08-12T01:57:01;100038.09;;;21.83;45.46
32875;BME280;40468;42.128;24.750;2023-08-12T01:58:32;100037.94;;;21.74;45.63
32875;BME280;40468;42.128;24.750;2023-08-12T02:00:05;100038.59;;;21.67;45.88
32875;BME280;40468;42.128;24.750;2023-08-12T02:01:36;100041.25;;;21.67;45.93
32875;BME280;40468;42.128;24.750;2023-08-12T02:03:08;100036.22;;;21.64;45.81
32875;BME280;40468;42.128;24.750;2023-08-12T02:04:39;100038.03;;;21.63;45.98
32875;BME280;40468;42.128;24.750;2023-08-12T02:06:13;100033.84;;;21.61;45.96
32875;BME280;40468;42.128;24.750;2023-08-12T02:07:43;100040.25;;;21.58;46.17
32875;BME280;40468;42.128;24.750;2023-08-12T02:09:15;100037.59;;;21.58;45.99
32875;BME280;40468;42.128;24.750;2023-08-12T02:10:47;100026.28;;;21.56;45.92
32875;BME280;40468;42.128;24.750;2023-08-12T02:12:19;100030.75;;;21.55;46.03
32875;BME280;40468;42.128;24.750;2023-08-12T02:13:49;100037.16;;;21.53;45.95
32875;BME280;40468;42.128;24.750;2023-08-12T02:15:21;100029.22;;;21.53;46.16
32875;BME280;40468;42.128;24.750;2023-08-12T02:16:51;100027.53;;;21.52;46.24
32875;BME280;40468;42.128;24.750;2023-08-12T02:18:23;100030.34;;;21.50;46.22
32875;BME280;40468;42.128;24.750;2023-08-12T02:19:54;100034.94;;;21.48;46.37
32875;BME280;40468;42.128;24.750;2023-08-12T02:21:25;100034.34;;;21.45;46.32
32875;BME280;40468;42.128;24.750;2023-08-12T02:22:56;100036.16;;;21.44;46.15
32875;BME280;40468;42.128;24.750;2023-08-12T02:24:27;100032.81;;;21.42;46.40
32875;BME280;40468;42.128;24.750;2023-08-12T02:25:59;100037.28;;;21.42;46.36
32875;BME280;40468;42.128;24.750;2023-08-12T02:27:32;100041.03;;;21.39;46.50
32875;BME280;40468;42.128;24.750;2023-08-12T02:29:03;100039.47;;;21.37;46.34
32875;BME280;40468;42.128;24.750;2023-08-12T02:30:35;100030.94;;;21.33;46.55
32875;BME280;40468;42.128;24.750;2023-08-12T02:32:07;100039.81;;;21.32;46.47
32875;BME280;40468;42.128;24.750;2023-08-12T02:33:37;100044.28;;;21.31;46.49
32875;BME280;40468;42.128;24.750;2023-08-12T02:35:09;100033.84;;;21.30;46.53
32875;BME280;40468;42.128;24.750;2023-08-12T02:36:40;100042.75;;;21.29;46.52
32875;BME280;40468;42.128;24.750;2023-08-12T02:38:12;100046.50;;;21.26;46.56
32875;BME280;40468;42.128;24.750;2023-08-12T02:39:42;100046.91;;;21.22;46.93
32875;BME280;40468;42.128;24.750;2023-08-12T02:41:15;100052.31;;;21.20;46.82
32875;BME280;40468;42.128;24.750;2023-08-12T02:42:46;100057.75;;;21.19;46.68
32875;BME280;40468;42.128;24.750;2023-08-12T02:44:17;100053.41;;;21.18;46.79
32875;BME280;40468;42.128;24.750;2023-08-12T02:45:48;100059.69;;;21.17;46.76
32875;BME280;40468;42.128;24.750;2023-08-12T02:47:20;100055.50;;;21.14;46.93
32875;BME280;40468;42.128;24.750;2023-08-12T02:48:50;100061.88;;;21.11;47.00
32875;BME280;40468;42.128;24.750;2023-08-12T02:50:22;100052.28;;;21.10;46.95
32875;BME280;40468;42.128;24.750;2023-08-12T02:51:52;100056.72;;;21.10;46.94
32875;BME280;40468;42.128;24.750;2023-08-12T02:53:24;100053.38;;;21.08;46.96
32875;BME280;40468;42.128;24.750;2023-08-12T02:54:55;100057.72;;;21.09;46.93
32875;BME280;40468;42.128;24.750;2023-08-12T02:56:28;100057.94;;;21.06;47.12
32875;BME280;40468;42.128;24.750;2023-08-12T02:57:58;100053.50;;;21.06;47.00
32875;BME280;40468;42.128;24.750;2023-08-12T02:59:30;100054.19;;;21.08;46.85
32875;BME280;40468;42.128;24.750;2023-08-12T03:01:02;100054.34;;;21.07;47.29
32875;BME280;40468;42.128;24.750;2023-08-12T03:02:34;100057.81;;;21.07;47.20
32875;BME280;40468;42.128;24.750;2023-08-12T03:04:06;100057.81;;;21.07;46.99
32875;BME280;40468;42.128;24.750;2023-08-12T03:05:36;100055.19;;;21.07;47.08
32875;BME280;40468;42.128;24.750;2023-08-12T03:07:08;100058.66;;;21.08;47.12
32875;BME280;40468;42.128;24.750;2023-08-12T03:08:40;100066.50;;;21.09;47.09
32875;BME280;40468;42.128;24.750;2023-08-12T03:10:10;100064.78;;;21.08;47.07
32875;BME280;40468;42.128;24.750;2023-08-12T03:11:43;100059.75;;;21.05;47.16
32875;BME280;40468;42.128;24.750;2023-08-12T03:13:14;100062.66;;;21.02;47.26
32875;BME280;40468;42.128;24.750;2023-08-12T03:14:45;100053.88;;;21.02;47.34
32875;BME280;40468;42.128;24.750;2023-08-12T03:16:16;100059.06;;;21.03;47.16
32875;BME280;40468;42.128;24.750;2023-08-12T03:17:48;100061.47;;;21.06;47.10
32875;BME280;40468;42.128;24.750;2023-08-12T03:19:18;100066.50;;;21.09;47.08
32875;BME280;40468;42.128;24.750;2023-08-12T03:20:50;100059.22;;;21.11;47.11
32875;BME280;40468;42.128;24.750;2023-08-12T03:22:21;100062.47;;;21.15;47.10
32875;BME280;40468;42.128;24.750;2023-08-12T03:23:53;100060.53;;;21.17;46.95
32875;BME280;40468;42.128;24.750;2023-08-12T03:25:24;100060.41;;;21.19;47.03
32875;BME280;40468;42.128;24.750;2023-08-12T03:26:57;100058.44;;;21.21;46.96
32875;BME280;40468;42.128;24.750;2023-08-12T03:28:27;100060.16;;;21.22;46.93
32875;BME280;40468;42.128;24.750;2023-08-12T03:29:59;100056.66;;;21.21;47.01
32875;BME280;40468;42.128;24.750;2023-08-12T03:31:29;100055.09;;;21.19;47.05
32875;BME280;40468;42.128;24.750;2023-08-12T03:33:01;100049.81;;;21.19;47.28
32875;BME280;40468;42.128;24.750;2023-08-12T03:34:33;100056.06;;;21.18;47.28
32875;BME280;40468;42.128;24.750;2023-08-12T03:36:04;100058.84;;;21.16;47.14
32875;BME280;40468;42.128;24.750;2023-08-12T03:37:35;100057.88;;;21.17;47.32
32875;BME280;40468;42.128;24.750;2023-08-12T03:39:07;100059.56;;;21.18;47.24
32875;BME280;40468;42.128;24.750;2023-08-12T03:40:37;100059.69;;;21.17;47.19
32875;BME280;40468;42.128;24.750;2023-08-12T03:42:10;100060.66;;;21.16;47.41
32875;BME280;40468;42.128;24.750;2023-08-12T03:43:41;100062.47;;;21.15;47.22
32875;BME280;40468;42.128;24.750;2023-08-12T03:45:13;100066.81;;;21.16;47.47
32875;BME280;40468;42.128;24.750;2023-08-12T03:46:43;100071.94;;;21.18;47.33
32875;BME280;40468;42.128;24.750;2023-08-12T03:48:15;100068.47;;;21.17;47.31
32875;BME280;40468;42.128;24.750;2023-08-12T03:49:46;100071.94;;;21.18;47.32
32875;BME280;40468;42.128;24.750;2023-08-12T03:51:17;100069.19;;;21.19;47.31
32875;BME280;40468;42.128;24.750;2023-08-12T03:52:48;100072.66;;;21.20;47.21
32875;BME280;40468;42.128;24.750;2023-08-12T03:54:20;100074.34;;;21.21;47.29
32875;BME280;40468;42.128;24.750;2023-08-12T03:55:50;100080.34;;;21.23;47.23
32875;BME280;40468;42.128;24.750;2023-08-12T03:57:23;100078.28;;;21.26;47.21
32875;BME280;40468;42.128;24.750;2023-08-12T03:58:55;100081.78;;;21.27;46.96
32875;BME280;40468;42.128;24.750;2023-08-12T04:00:25;100073.56;;;21.30;46.93
32875;BME280;40468;42.128;24.750;2023-08-12T04:01:57;100079.56;;;21.32;47.08
32875;BME280;40468;42.128;24.750;2023-08-12T04:03:27;100081.03;;;21.36;46.94
32875;BME280;40468;42.128;24.750;2023-08-12T04:04:59;100083.41;;;21.39;46.74
32875;BME280;40468;42.128;24.750;2023-08-12T04:06:30;100078.81;;;21.41;46.91
32875;BME280;40468;42.128;24.750;2023-08-12T04:08:01;100082.31;;;21.42;46.87
32875;BME280;40468;42.128;24.750;2023-08-12T04:09:32;100088.56;;;21.41;46.90
32875;BME280;40468;42.128;24.750;2023-08-12T04:11:04;100085.81;;;21.42;47.05
32875;BME280;40468;42.128;24.750;2023-08-12T04:12:37;100084.09;;;21.41;47.19
32875;BME280;40468;42.128;24.750;2023-08-12T04:14:08;100088.56;;;21.41;46.90
32875;BME280;40468;42.128;24.750;2023-08-12T04:15:39;100092.03;;;21.41;46.85
32875;BME280;40468;42.128;24.750;2023-08-12T04:17:11;100089.53;;;21.40;46.89
32875;BME280;40468;42.128;24.750;2023-08-12T04:18:42;100090.38;;;21.40;47.08
32875;BME280;40468;42.128;24.750;2023-08-12T04:20:13;100090.38;;;21.40;46.91
32875;BME280;40468;42.128;24.750;2023-08-12T04:21:45;100088.72;;;21.39;47.00
32875;BME280;40468;42.128;24.750;2023-08-12T04:23:16;100090.53;;;21.39;47.10
32875;BME280;40468;42.128;24.750;2023-08-12T04:24:48;100087.00;;;21.38;47.01
32875;BME280;40468;42.128;24.750;2023-08-12T04:26:19;100086.31;;;21.36;46.96
32875;BME280;40468;42.128;24.750;2023-08-12T04:27:52;100098.72;;;21.35;46.97
32875;BME280;40468;42.128;24.750;2023-08-12T04:29:22;100089.81;;;21.37;47.07
32875;BME280;40468;42.128;24.750;2023-08-12T04:30:54;100101.25;;;21.37;47.11
32875;BME280;40468;42.128;24.750;2023-08-12T04:32:25;100095.94;;;21.37;46.91
32875;BME280;40468;42.128;24.750;2023-08-12T04:33:56;100100.25;;;21.38;47.06
32875;BME280;40468;42.128;24.750;2023-08-12T04:35:30;100101.34;;;21.35;47.22
32875;BME280;40468;42.128;24.750;2023-08-12T04:37:01;100091.63;;;21.36;46.95
32875;BME280;40468;42.128;24.750;2023-08-12T04:38:32;100097.84;;;21.35;47.09
32875;BME280;40468;42.128;24.750;2023-08-12T04:40:03;100097.00;;;21.34;47.28
32875;BME280;40468;42.128;24.750;2023-08-12T04:41:37;100095.19;;;21.35;47.03
32875;BME280;40468;42.128;24.750;2023-08-12T04:43:09;100100.63;;;21.33;47.34
32875;BME280;40468;42.128;24.750;2023-08-12T04:44:43;100106.06;;;21.32;47.29
32875;BME280;40468;42.128;24.750;2023-08-12T04:46:15;100103.28;;;21.33;47.40
32875;BME280;40468;42.128;24.750;2023-08-12T04:47:46;100106.06;;;21.32;47.28
32875;BME280;40468;42.128;24.750;2023-08-12T04:49:17;100106.19;;;21.30;47.31
32875;BME280;40468;42.128;24.750;2023-08-12T04:50:48;100103.41;;;21.32;47.43
32875;BME280;40468;42.128;24.750;2023-08-12T04:52:19;100100.63;;;21.33;47.31
32875;BME280;40468;42.128;24.750;2023-08-12T04:53:51;100097.00;;;21.34;47.37
32875;BME280;40468;42.128;24.750;2023-08-12T04:55:22;100101.47;;;21.34;47.22
32875;BME280;40468;42.128;24.750;2023-08-12T04:56:55;100110.25;;;21.34;47.26
32875;BME280;40468;42.128;24.750;2023-08-12T04:58:28;100106.78;;;21.34;47.45
32875;BME280;40468;42.128;24.750;2023-08-12T04:59:59;100102.56;;;21.31;47.37
32875;BME280;40468;42.128;24.750;2023-08-12T05:01:30;100108.69;;;21.32;47.52
32875;BME280;40468;42.128;24.750;2023-08-12T05:03:02;100108.69;;;21.32;47.63
32875;BME280;40468;42.128;24.750;2023-08-12T05:04:32;100104.25;;;21.32;47.57
32875;BME280;40468;42.128;24.750;2023-08-12T05:06:04;100105.09;;;21.33;47.32
32875;BME280;40468;42.128;24.750;2023-08-12T05:07:35;100104.88;;;21.36;47.24
32875;BME280;40468;42.128;24.750;2023-08-12T05:09:06;100107.25;;;21.39;47.45
32875;BME280;40468;42.128;24.750;2023-08-12T05:10:37;100107.00;;;21.42;47.38
32875;BME280;40468;42.128;24.750;2023-08-12T05:12:09;100108.66;;;21.43;47.45
32875;BME280;40468;42.128;24.750;2023-08-12T05:13:41;100111.31;;;21.43;47.54
32875;BME280;40468;42.128;24.750;2023-08-12T05:15:12;100105.75;;;21.46;47.44
32875;BME280;40468;42.128;24.750;2023-08-12T05:16:43;100111.75;;;21.48;47.58
32875;BME280;40468;42.128;24.750;2023-08-12T05:18:14;100110.78;;;21.49;47.43
32875;BME280;40468;42.128;24.750;2023-08-12T05:19:45;100107.19;;;21.50;47.58
32875;BME280;40468;42.128;24.750;2023-08-12T05:21:17;100108.97;;;21.50;47.54
32875;BME280;40468;42.128;24.750;2023-08-12T05:22:48;100110.66;;;21.51;47.59
32875;BME280;40468;42.128;24.750;2023-08-12T05:24:19;100107.03;;;21.52;47.50
32875;BME280;40468;42.128;24.750;2023-08-12T05:25:50;100105.22;;;21.52;47.56
32875;BME280;40468;42.128;24.750;2023-08-12T05:27:21;100114.59;;;21.56;47.43
32875;BME280;40468;42.128;24.750;2023-08-12T05:28:53;100110.00;;;21.58;47.65
32875;BME280;40468;42.128;24.750;2023-08-12T05:30:25;100112.53;;;21.60;47.75
32875;BME280;40468;42.128;24.750;2023-08-12T05:31:56;100116.72;;;21.63;47.49
32875;BME280;40468;42.128;24.750;2023-08-12T05:33:28;100113.22;;;21.62;47.73
32875;BME280;40468;42.128;24.750;2023-08-12T05:34:58;100123.13;;;21.60;47.74
32875;BME280;40468;42.128;24.750;2023-08-12T05:36:30;100118.09;;;21.57;47.88
32875;BME280;40468;42.128;24.750;2023-08-12T05:38:00;100118.09;;;21.57;47.90
32875;BME280;40468;42.128;24.750;2023-08-12T05:39:32;100122.56;;;21.56;47.99
32875;BME280;40468;42.128;24.750;2023-08-12T05:41:03;100116.38;;;21.56;48.06
32875;BME280;40468;42.128;24.750;2023-08-12T05:42:37;100112.78;;;21.57;48.15
32875;BME280;40468;42.128;24.750;2023-08-12T05:44:09;100117.94;;;21.58;47.87
32875;BME280;40468;42.128;24.750;2023-08-12T05:45:41;100117.00;;;21.60;47.78
32875;BME280;40468;42.128;24.750;2023-08-12T05:47:11;100115.84;;;21.62;47.96
32875;BME280;40468;42.128;24.750;2023-08-12T05:48:43;100115.75;;;21.64;47.90
32875;BME280;40468;42.128;24.750;2023-08-12T05:50:13;100114.75;;;21.65;47.89
32875;BME280;40468;42.128;24.750;2023-08-12T05:51:45;100107.53;;;21.67;47.81
32875;BME280;40468;42.128;24.750;2023-08-12T05:53:16;100107.41;;;21.68;47.80
32875;BME280;40468;42.128;24.750;2023-08-12T05:54:47;100101.13;;;21.69;47.92
32875;BME280;40468;42.128;24.750;2023-08-12T05:56:18;100100.97;;;21.71;47.82
32875;BME280;40468;42.128;24.750;2023-08-12T05:57:49;100108.66;;;21.74;47.84
32875;BME280;40468;42.128;24.750;2023-08-12T05:59:21;100100.59;;;21.75;48.00
32875;BME280;40468;42.128;24.750;2023-08-12T06:00:53;100105.75;;;21.77;47.94
32875;BME280;40468;42.128;24.750;2023-08-12T06:02:24;100109.09;;;21.79;47.84
32875;BME280;40468;42.128;24.750;2023-08-12T06:03:56;100104.50;;;21.81;47.79
32875;BME280;40468;42.128;24.750;2023-08-12T06:05:28;100106.06;;;21.84;47.70
32875;BME280;40468;42.128;24.750;2023-08-12T06:06:58;100099.94;;;21.83;47.68
32875;BME280;40468;42.128;24.750;2023-08-12T06:08:30;100097.28;;;21.83;47.98
32875;BME280;40468;42.128;24.750;2023-08-12T06:10:01;100095.56;;;21.82;48.02
32875;BME280;40468;42.128;24.750;2023-08-12T06:11:33;100097.28;;;21.83;47.80
32875;BME280;40468;42.128;24.750;2023-08-12T06:13:04;100093.63;;;21.84;48.00
32875;BME280;40468;42.128;24.750;2023-08-12T06:14:37;100096.84;;;21.88;47.76
32875;BME280;40468;42.128;24.750;2023-08-12T06:16:08;100095.75;;;21.90;47.96
32875;BME280;40468;42.128;24.750;2023-08-12T06:17:40;100098.28;;;21.92;47.96
32875;BME280;40468;42.128;24.750;2023-08-12T06:19:10;100089.34;;;21.93;47.93
32875;BME280;40468;42.128;24.750;2023-08-12T06:20:42;100091.72;;;21.96;48.09
32875;BME280;40468;42.128;24.750;2023-08-12T06:22:12;100092.28;;;21.99;47.85
32875;BME280;40468;42.128;24.750;2023-08-12T06:23:44;100091.19;;;22.02;47.95
32875;BME280;40468;42.128;24.750;2023-08-12T06:25:15;100090.63;;;22.08;47.77
32875;BME280;40468;42.128;24.750;2023-08-12T06:26:47;100090.09;;;22.14;47.59
32875;BME280;40468;42.128;24.750;2023-08-12T06:28:18;100088.88;;;22.18;47.65
32875;BME280;40468;42.128;24.750;2023-08-12T06:29:50;100084.00;;;22.23;47.54
32875;BME280;40468;42.128;24.750;2023-08-12T06:31:22;100089.03;;;22.26;47.53
32875;BME280;40468;42.128;24.750;2023-08-12T06:32:53;100090.44;;;22.31;47.45
32875;BME280;40468;42.128;24.750;2023-08-12T06:34:24;100086.53;;;22.35;47.72
32875;BME280;40468;42.128;24.750;2023-08-12T06:35:56;100084.84;;;22.43;47.38
32875;BME280;40468;42.128;24.750;2023-08-12T06:37:27;100090.88;;;22.55;47.45
32875;BME280;40468;42.128;24.750;2023-08-12T06:38:58;100088.22;;;22.65;47.19
32875;BME280;40468;42.128;24.750;2023-08-12T06:40:30;100082.75;;;22.76;47.01
32875;BME280;40468;42.128;24.750;2023-08-12T06:42:01;100082.34;;;22.90;46.65
32875;BME280;40468;42.128;24.750;2023-08-12T06:43:33;100094.38;;;23.04;46.64
32875;BME280;40468;42.128;24.750;2023-08-12T06:45:07;100087.91;;;23.16;46.54
32875;BME280;40468;42.128;24.750;2023-08-12T06:46:39;100090.53;;;23.26;46.23
32875;BME280;40468;42.128;24.750;2023-08-12T06:48:09;100095.00;;;23.35;46.26
32875;BME280;40468;42.128;24.750;2023-08-12T06:49:41;100093.00;;;23.47;45.98
32875;BME280;40468;42.128;24.750;2023-08-12T06:51:12;100086.38;;;23.61;45.77
32875;BME280;40468;42.128;24.750;2023-08-12T06:52:43;100091.91;;;23.77;45.59
32875;BME280;40468;42.128;24.750;2023-08-12T06:54:14;100085.97;;;23.93;45.24
32875;BME280;40468;42.128;24.750;2023-08-12T06:55:46;100083.66;;;24.08;44.81
32875;BME280;40468;42.128;24.750;2023-08-12T06:57:16;100074.91;;;24.16;44.64
32875;BME280;40468;42.128;24.750;2023-08-12T06:58:48;100075.69;;;24.26;44.63
32875;BME280;40468;42.128;24.750;2023-08-12T07:00:20;100075.31;;;24.39;44.17
32875;BME280;40468;42.128;24.750;2023-08-12T07:01:51;100079.75;;;24.48;44.32
32875;BME280;40468;42.128;24.750;2023-08-12T07:03:22;100078.69;;;24.59;44.10
32875;BME280;40468;42.128;24.750;2023-08-12T07:04:54;100073.28;;;24.68;43.92
32875;BME280;40468;42.128;24.750;2023-08-12T07:06:24;100067.03;;;24.78;43.49
32875;BME280;40468;42.128;24.750;2023-08-12T07:07:56;100076.44;;;24.90;43.33
32875;BME280;40468;42.128;24.750;2023-08-12T07:09:27;100072.00;;;24.98;43.01
32875;BME280;40468;42.128;24.750;2023-08-12T07:10:58;100064.09;;;25.07;42.94
32875;BME280;40468;42.128;24.750;2023-08-12T07:12:30;100069.19;;;25.18;42.37
32875;BME280;40468;42.128;24.750;2023-08-12T07:14:00;100066.41;;;25.28;42.53
32875;BME280;40468;42.128;24.750;2023-08-12T07:15:33;100064.31;;;25.39;42.41
32875;BME280;40468;42.128;24.750;2023-08-12T07:17:04;100062.19;;;25.51;42.05
32875;BME280;40468;42.128;24.750;2023-08-12T07:18:36;100060.22;;;25.61;42.08
32875;BME280;40468;42.128;24.750;2023-08-12T07:20:07;100067.63;;;25.76;41.86
32875;BME280;40468;42.128;24.750;2023-08-12T07:21:39;100069.03;;;25.88;41.38
32875;BME280;40468;42.128;24.750;2023-08-12T07:23:10;100067.09;;;25.98;41.49
32875;BME280;40468;42.128;24.750;2023-08-12T07:24:41;100065.97;;;26.09;40.92
32875;BME280;40468;42.128;24.750;2023-08-12T07:26:12;100065.47;;;26.22;41.16
32875;BME280;40468;42.128;24.750;2023-08-12T07:27:44;100063.34;;;26.33;40.84
32875;BME280;40468;42.128;24.750;2023-08-12T07:29:15;100062.47;;;26.41;40.52
32875;BME280;40468;42.128;24.750;2023-08-12T07:30:49;100065.88;;;26.51;39.99
32875;BME280;40468;42.128;24.750;2023-08-12T07:32:19;100066.88;;;26.59;40.21
32875;BME280;40468;42.128;24.750;2023-08-12T07:33:51;100064.88;;;26.69;40.04
32875;BME280;40468;42.128;24.750;2023-08-12T07:35:21;100060.69;;;26.83;39.57
32875;BME280;40468;42.128;24.750;2023-08-12T07:36:53;100061.19;;;26.94;39.41
32875;BME280;40468;42.128;24.750;2023-08-12T07:38:24;100058.84;;;26.99;39.02
32875;BME280;40468;42.128;24.750;2023-08-12T07:39:55;100067.00;;;27.06;39.07
32875;BME280;40468;42.128;24.750;2023-08-12T07:41:26;100062.53;;;27.15;38.88
32875;BME280;40468;42.128;24.750;2023-08-12T07:42:58;100061.84;;;27.21;38.35
32875;BME280;40468;42.128;24.750;2023-08-12T07:44:28;100064.34;;;27.22;38.21
32875;BME280;40468;42.128;24.750;2023-08-12T07:46:01;100062.84;;;27.28;38.27
32875;BME280;40468;42.128;24.750;2023-08-12T07:47:34;100062.63;;;27.38;38.23
32875;BME280;40468;42.128;24.750;2023-08-12T07:49:05;100057.59;;;27.51;38.33
32875;BME280;40468;42.128;24.750;2023-08-12T07:50:37;100058.69;;;27.65;38.03
32875;BME280;40468;42.128;24.750;2023-08-12T07:52:08;100056.34;;;27.78;37.90
32875;BME280;40468;42.128;24.750;2023-08-12T07:53:39;100054.94;;;27.90;37.73